Hlavní strana
METAR-TAF:

METAR-TAF

Letiště :

Bizerte, Tunisko

zeměpisná šířka: 37-15N, zeměpisná délka: 009-48E, výška: 5 m

Aktuální stav počasí

Zpráva byla vytvořena před 30 minutami, v 06:00 UTC
Severozápadní vítr 2 kt
Teplota 4°C
Vlhkost vzduchu 93%
Tlak 1023 hPa
Viditelnost: 6000 m
Skoro jasno ve výšce 2000 ft

METAR: DTTB 250600Z 32002KT 6000 FEW020 04/03 Q1023

Čas: 07:30 (06:30 UTC)

Předpověď počasí

Zpráva byla vytvořena před 3 hodinami a 30 minutami, v 03:00 UTC
Předpověď platná od 25 v 04 UTC do 25 v 13 UTC
vítr z různých směrů 2 kt
Viditelnost: 8000 m
Skoro jasno ve výšce 2000 ft
Pravděpodobnost 40% :
Dočasný
od 25 v 05 UTC do 25 v 08 UTC
Viditelnost: 2000 m
kouřmo

TAF: DTTB 250300Z 2504/2513 VRB02KT 8000 FEW020 PROB40 TEMPO 2505/2508 2000 BR

Stav a předpovědi počasí z více než 4 000 letišť (zprávy METAR a TAF).

Červené a žluté tečky na mapě představují dostupné meteorologické stanice.

Když kurzor umístíte na tečku, zobrazí se název stanice.

Pak kliknutím zobrazíte stav a předpověď počasí.

Chcete-li změnit mapu, kliknutím na zelené tlačítko se znaménkem +mapu přiblížíte, kliknutím na zelené tlačítko se znaménkem – mapu oddálíte a kliknutím na zelené šipky přejdete na sousední mapy.


METAR-TAF: